Time,TemperatureF,DewpointF,PressureIn,WindDirection,WindDirectionDegrees,WindSpeedMPH,WindSpeedGustMPH,Humidity,HourlyPrecipIn,Conditions,Clouds,dailyrainin,SoftwareType,DateUTC
2013-03-04 00:01:00,42.0,40.1,30.18,NW,309,0.0,0.0,93,0.00,,,0.00,Wunderground v.1.15,2013-03-04 05:01:00,
2013-03-04 00:02:00,42.0,40.1,30.17,NW,309,0.0,0.0,93,0.00,,,0.00,Wunderground v.1.15,2013-03-04 05:02:00,
2013-03-04 00:03:00,42.0,40.1,30.18,NW,309,0.0,0.0,93,0.00,,,0.00,Wunderground v.1.15,2013-03-04 05:03:00,
2013-03-04 00:08:00,41.9,40.0,30.18,NW,309,0.0,0.0,93,0.00,,,0.00,Wunderground v.1.15,2013-03-04 05:08:00,
2013-03-04 00:12:00,41.8,39.9,30.18,NW,309,0.0,0.0,93,0.00,,,0.00,Wunderground v.1.15,2013-03-04 05:12:00,
2013-03-04 00:17:00,41.8,39.9,30.18,NW,309,0.0,0.0,93,0.00,,,0.00,Wunderground v.1.15,2013-03-04 05:17:00,
2013-03-04 00:23:00,41.6,39.7,30.18,NW,309,0.0,0.0,93,0.00,,,0.00,Wunderground v.1.15,2013-03-04 05:23:00,
2013-03-04 00:28:00,41.6,39.4,30.18,NW,309,0.0,0.0,92,0.00,,,0.00,Wunderground v.1.15,2013-03-04 05:28:00,
2013-03-04 00:33:00,41.5,39.3,30.18,NW,309,0.0,0.0,92,0.00,,,0.00,Wunderground v.1.15,2013-03-04 05:33:00,
2013-03-04 00:38:00,41.5,39.1,30.18,NW,309,0.0,0.0,91,0.00,,,0.00,Wunderground v.1.15,2013-03-04 05:38:00,
2013-03-04 00:44:00,41.4,39.0,30.18,NW,309,0.0,0.0,91,0.00,,,0.00,Wunderground v.1.15,2013-03-04 05:44:00,
2013-03-04 00:49:00,41.4,39.0,30.18,NW,309,0.0,0.0,91,0.00,,,0.00,Wunderground v.1.15,2013-03-04 05:49:00,
2013-03-04 00:56:00,41.2,38.8,30.17,NW,309,0.0,0.0,91,0.00,,,0.00,Wunderground v.1.15,2013-03-04 05:56:00,
2013-03-04 01:02:00,41.0,38.6,30.17,NW,309,0.0,0.0,91,0.00,,,0.00,Wunderground v.1.15,2013-03-04 06:02:00,
2013-03-04 01:07:00,40.9,38.5,30.17,NW,309,0.0,0.0,91,0.00,,,0.00,Wunderground v.1.15,2013-03-04 06:07:00,
2013-03-04 01:12:00,40.9,38.5,30.17,NW,309,0.0,0.0,91,0.00,,,0.00,Wunderground v.1.15,2013-03-04 06:12:00,
2013-03-04 01:18:00,40.9,38.2,30.16,NNW,329,0.0,0.0,90,0.00,,,0.00,Wunderground v.1.15,2013-03-04 06:18:00,
2013-03-04 01:24:00,40.9,38.2,30.16,NNW,330,0.0,0.0,90,0.00,,,0.00,Wunderground v.1.15,2013-03-04 06:24:00,
2013-03-04 01:31:00,40.9,37.9,30.15,NNW,330,0.0,0.0,89,0.00,,,0.00,Wunderground v.1.15,2013-03-04 06:31:00,
2013-03-04 01:37:00,40.9,37.9,30.15,NNW,330,0.0,0.0,89,0.00,,,0.00,Wunderground v.1.15,2013-03-04 06:37:00,
2013-03-04 01:43:00,40.9,37.6,30.15,NNW,331,0.0,0.0,88,0.00,,,0.00,Wunderground v.1.15,2013-03-04 06:43:00,
2013-03-04 01:48:00,40.8,37.5,30.15,NNW,331,0.0,1.0,88,0.00,,,0.00,Wunderground v.1.15,2013-03-04 06:48:00,
2013-03-04 01:54:00,40.7,37.4,30.16,NNW,331,0.0,0.0,88,0.00,,,0.00,Wunderground v.1.15,2013-03-04 06:54:00,
2013-03-04 02:01:00,40.6,37.3,30.15,SSW,206,0.0,1.0,88,0.00,,,0.00,Wunderground v.1.15,2013-03-04 07:01:00,
2013-03-04 02:06:00,40.6,37.3,30.16,SSW,206,0.0,1.0,88,0.00,,,0.00,Wunderground v.1.15,2013-03-04 07:06:00,
2013-03-04 02:11:00,40.5,37.2,30.15,SSW,206,0.0,0.0,88,0.00,,,0.00,Wunderground v.1.15,2013-03-04 07:11:00,
2013-03-04 02:17:00,40.3,37.0,30.15,SSW,206,0.0,0.0,88,0.00,,,0.00,Wunderground v.1.15,2013-03-04 07:17:00,
2013-03-04 02:23:00,40.2,36.6,30.15,SSW,206,0.0,0.0,87,0.00,,,0.00,Wunderground v.1.15,2013-03-04 07:23:00,
2013-03-04 02:28:00,40.2,36.6,30.15,SSW,206,0.0,0.0,87,0.00,,,0.00,Wunderground v.1.15,2013-03-04 07:28:00,
2013-03-04 02:34:00,-999.9,-99.9,30.16,North,32767,-999.0,0.0,255,-99.99,,,0.00,Wunderground v.1.15,2013-03-04 07:34:00,
2013-03-04 02:41:00,-999.9,-99.9,30.16,North,32767,-999.0,0.0,255,-99.99,,,0.00,Wunderground v.1.15,2013-03-04 07:41:00,
2013-03-04 02:46:00,-999.9,-99.9,30.16,North,32767,-999.0,0.0,255,-99.99,,,0.00,Wunderground v.1.15,2013-03-04 07:46:00,
2013-03-04 02:51:00,-999.9,-99.9,30.16,North,32767,-999.0,0.0,255,-99.99,,,0.00,Wunderground v.1.15,2013-03-04 07:51:00,
2013-03-04 02:57:00,-999.9,-99.9,30.16,North,32767,-999.0,0.0,255,-99.99,,,0.00,Wunderground v.1.15,2013-03-04 07:57:00,
2013-03-04 03:02:00,-999.9,-99.9,30.15,North,32767,-999.0,0.0,255,-99.99,,,0.00,Wunderground v.1.15,2013-03-04 08:02:00,
2013-03-04 03:07:00,-999.9,-99.9,30.15,North,32767,-999.0,0.0,255,-99.99,,,0.00,Wunderground v.1.15,2013-03-04 08:07:00,
2013-03-04 03:13:00,-999.9,-99.9,30.15,North,32767,-999.0,0.0,255,-99.99,,,0.00,Wunderground v.1.15,2013-03-04 08:13:00,
2013-03-04 03:18:00,-999.9,-99.9,30.15,North,32767,-999.0,0.0,255,-99.99,,,0.00,Wunderground v.1.15,2013-03-04 08:18:00,
2013-03-04 03:24:00,-999.9,-99.9,30.15,North,32767,-999.0,0.0,255,-99.99,,,0.00,Wunderground v.1.15,2013-03-04 08:24:00,
2013-03-04 03:31:00,-999.9,-99.9,30.15,North,32767,-999.0,0.0,255,-99.99,,,0.00,Wunderground v.1.15,2013-03-04 08:31:00,
2013-03-04 03:36:00,36.8,35.0,30.15,SSW,206,0.0,0.0,93,0.00,,,0.00,Wunderground v.1.15,2013-03-04 08:36:00,
2013-03-04 03:41:00,36.6,34.8,30.16,SSW,206,0.0,0.0,93,0.00,,,0.00,Wunderground v.1.15,2013-03-04 08:41:00,
2013-03-04 03:46:00,36.4,34.6,30.16,SSW,206,0.0,0.0,93,0.00,,,0.00,Wunderground v.1.15,2013-03-04 08:46:00,
2013-03-04 03:52:00,36.2,34.4,30.16,SSW,206,0.0,0.0,93,0.00,,,0.00,Wunderground v.1.15,2013-03-04 08:52:00,
2013-03-04 03:57:00,36.1,34.3,30.16,SSW,206,0.0,0.0,93,0.00,,,0.00,Wunderground v.1.15,2013-03-04 08:57:00,
2013-03-04 04:02:00,35.9,34.3,30.16,SSW,206,0.0,0.0,94,0.00,,,0.00,Wunderground v.1.15,2013-03-04 09:02:00,
2013-03-04 04:08:00,35.8,34.2,30.16,SSW,206,0.0,0.0,94,0.00,,,0.00,Wunderground v.1.15,2013-03-04 09:08:00,
2013-03-04 04:14:00,35.6,34.0,30.17,SSW,206,0.0,0.0,94,0.00,,,0.00,Wunderground v.1.15,2013-03-04 09:14:00,
2013-03-04 04:21:00,35.4,33.8,30.17,SSW,206,0.0,0.0,94,0.00,,,0.00,Wunderground v.1.15,2013-03-04 09:21:00,
2013-03-04 04:26:00,35.2,33.6,30.17,SSW,206,0.0,0.0,94,0.00,,,0.00,Wunderground v.1.15,2013-03-04 09:26:00,
2013-03-04 04:31:00,35.0,33.4,30.17,SSW,206,0.0,0.0,94,0.00,,,0.00,Wunderground v.1.15,2013-03-04 09:31:00,
2013-03-04 04:36:00,34.8,33.2,30.17,SSW,206,0.0,0.0,94,0.00,,,0.00,Wunderground v.1.15,2013-03-04 09:36:00,
2013-03-04 04:41:00,34.7,33.2,30.18,SSW,206,0.0,0.0,94,0.00,,,0.00,Wunderground v.1.15,2013-03-04 09:41:00,
2013-03-04 04:46:00,34.5,33.0,30.18,SSW,206,0.0,0.0,94,0.00,,,0.00,Wunderground v.1.15,2013-03-04 09:46:00,
2013-03-04 04:51:00,34.4,32.9,30.18,SSW,206,0.0,0.0,94,0.00,,,0.00,Wunderground v.1.15,2013-03-04 09:51:00,
2013-03-04 04:56:00,34.2,32.7,30.18,SSW,206,0.0,0.0,94,0.00,,,0.00,Wunderground v.1.15,2013-03-04 09:56:00,
2013-03-04 05:01:00,34.0,32.5,30.18,SSW,206,0.0,0.0,94,0.00,,,0.00,Wunderground v.1.15,2013-03-04 10:01:00,
2013-03-04 05:06:00,33.9,32.4,30.19,SSW,206,0.0,0.0,94,0.00,,,0.00,Wunderground v.1.15,2013-03-04 10:06:00,
2013-03-04 05:12:00,33.8,32.5,30.19,SSW,206,0.0,0.0,95,0.00,,,0.00,Wunderground v.1.15,2013-03-04 10:12:00,
2013-03-04 05:18:00,33.7,32.4,30.19,SSW,206,0.0,0.0,95,0.00,,,0.00,Wunderground v.1.15,2013-03-04 10:18:00,
2013-03-04 05:24:00,33.6,32.3,30.19,SSW,206,0.0,0.0,95,0.00,,,0.00,Wunderground v.1.15,2013-03-04 10:24:00,
2013-03-04 05:29:00,33.5,32.2,30.19,SSW,206,0.0,0.0,95,0.00,,,0.00,Wunderground v.1.15,2013-03-04 10:29:00,
2013-03-04 05:34:00,33.4,32.1,30.19,SSW,206,0.0,0.0,95,0.00,,,0.00,Wunderground v.1.15,2013-03-04 10:34:00,
2013-03-04 05:39:00,33.4,32.1,30.20,SSW,206,0.0,0.0,95,0.00,,,0.00,Wunderground v.1.15,2013-03-04 10:39:00,
2013-03-04 05:44:00,33.4,32.1,30.20,SSW,206,0.0,0.0,95,0.00,,,0.00,Wunderground v.1.15,2013-03-04 10:44:00,
2013-03-04 05:49:00,33.3,32.0,30.20,SSW,206,0.0,0.0,95,0.00,,,0.00,Wunderground v.1.15,2013-03-04 10:49:00,
2013-03-04 05:54:00,33.2,31.9,30.20,SSW,206,0.0,0.0,95,0.00,,,0.00,Wunderground v.1.15,2013-03-04 10:54:00,
2013-03-04 05:59:00,33.2,32.2,30.20,SSW,206,0.0,0.0,96,0.00,,,0.00,Wunderground v.1.15,2013-03-04 10:59:00,
2013-03-04 06:04:00,33.1,32.1,30.20,SSW,206,0.0,0.0,96,0.00,,,0.00,Wunderground v.1.15,2013-03-04 11:04:00,
2013-03-04 06:09:00,33.1,32.1,30.21,SSW,206,0.0,0.0,96,0.00,,,0.00,Wunderground v.1.15,2013-03-04 11:09:00,
2013-03-04 06:14:00,33.1,32.1,30.21,SSW,206,0.0,0.0,96,0.00,,,0.00,Wunderground v.1.15,2013-03-04 11:14:00,
2013-03-04 06:21:00,33.2,32.2,30.21,SSW,206,0.0,0.0,96,0.00,,,0.00,Wunderground v.1.15,2013-03-04 11:21:00,
2013-03-04 06:26:00,33.3,32.3,30.21,SSW,206,0.0,0.0,96,0.42,,,0.02,Wunderground v.1.15,2013-03-04 11:26:00,
2013-03-04 06:31:00,33.5,32.5,30.21,SSW,206,0.0,0.0,96,0.14,,,0.04,Wunderground v.1.15,2013-03-04 11:31:00,
2013-03-04 06:37:00,34.1,33.1,30.22,SSW,206,0.0,0.0,96,0.10,,,0.05,Wunderground v.1.15,2013-03-04 11:37:00,
2013-03-04 06:42:00,34.3,33.5,30.22,SSW,206,0.0,0.0,97,0.10,,,0.05,Wunderground v.1.15,2013-03-04 11:42:00,
2013-03-04 06:48:00,34.7,33.9,30.22,South,191,0.0,0.0,97,0.34,,,0.09,Wunderground v.1.15,2013-03-04 11:48:00,
2013-03-04 06:54:00,35.1,34.3,30.22,South,190,0.0,0.0,97,0.27,,,0.14,Wunderground v.1.15,2013-03-04 11:54:00,
2013-03-04 07:01:00,35.2,34.4,30.22,South,190,0.0,0.0,97,0.25,,,0.15,Wunderground v.1.15,2013-03-04 12:01:00,
2013-03-04 07:06:00,35.6,34.8,30.22,South,190,0.0,0.0,97,0.29,,,0.19,Wunderground v.1.15,2013-03-04 12:06:00,
2013-03-04 07:11:00,35.8,35.0,30.23,South,190,0.0,0.0,97,0.28,,,0.22,Wunderground v.1.15,2013-03-04 12:11:00,
2013-03-04 07:16:00,36.0,35.2,30.23,South,190,0.0,0.0,97,0.15,,,0.23,Wunderground v.1.15,2013-03-04 12:16:00,
2013-03-04 07:21:00,36.2,35.4,30.23,South,190,0.0,0.0,97,0.13,,,0.24,Wunderground v.1.15,2013-03-04 12:21:00,
2013-03-04 07:27:00,36.5,35.7,30.23,South,190,0.0,0.0,97,0.14,,,0.25,Wunderground v.1.15,2013-03-04 12:27:00,
2013-03-04 07:33:00,36.9,36.1,30.23,South,190,0.0,0.0,97,0.14,,,0.27,Wunderground v.1.15,2013-03-04 12:33:00,
2013-03-04 07:41:00,37.7,36.9,30.23,South,190,0.0,0.0,97,0.09,,,0.28,Wunderground v.1.15,2013-03-04 12:41:00,
2013-03-04 07:46:00,38.1,37.3,30.23,South,190,0.0,0.0,97,0.25,,,0.30,Wunderground v.1.15,2013-03-04 12:46:00,
2013-03-04 07:51:00,38.4,37.6,30.23,South,190,0.0,0.0,97,0.13,,,0.31,Wunderground v.1.15,2013-03-04 12:51:00,
2013-03-04 07:57:00,39.1,38.6,30.23,South,190,0.0,0.0,98,0.16,,,0.33,Wunderground v.1.15,2013-03-04 12:57:00,
2013-03-04 08:03:00,39.7,39.2,30.24,South,190,0.0,0.0,98,0.26,,,0.35,Wunderground v.1.15,2013-03-04 13:03:00,
2013-03-04 08:09:00,40.2,39.7,30.24,South,190,0.0,0.0,98,0.27,,,0.37,Wunderground v.1.15,2013-03-04 13:09:00,
2013-03-04 08:14:00,40.6,40.1,30.24,SE,126,0.0,1.0,98,0.24,,,0.39,Wunderground v.1.15,2013-03-04 13:14:00,
2013-03-04 08:19:00,40.8,40.3,30.24,NE,41,0.0,2.0,98,0.08,,,0.39,Wunderground v.1.15,2013-03-04 13:19:00,
2013-03-04 08:26:00,40.9,40.4,30.24,NE,36,0.0,1.0,98,0.04,,,0.39,Wunderground v.1.15,2013-03-04 13:26:00,
2013-03-04 08:31:00,41.2,40.7,30.24,NE,36,0.0,0.0,98,0.00,,,0.39,Wunderground v.1.15,2013-03-04 13:31:00,
2013-03-04 08:41:00,41.6,41.1,30.24,NNE,28,1.0,3.0,98,0.00,,,0.39,Wunderground v.1.15,2013-03-04 13:41:00,
2013-03-04 08:47:00,41.9,41.1,30.24,NNE,30,1.0,3.0,97,0.00,,,0.39,Wunderground v.1.15,2013-03-04 13:47:00,
2013-03-04 08:52:00,42.2,41.1,30.24,North,358,1.0,1.0,96,0.00,,,0.39,Wunderground v.1.15,2013-03-04 13:52:00,
2013-03-04 08:58:00,42.9,41.3,30.25,NNE,20,1.0,1.0,94,0.00,,,0.39,Wunderground v.1.15,2013-03-04 13:58:00,
2013-03-04 09:03:00,43.7,42.1,30.25,NNE,20,1.0,1.0,94,0.00,,,0.39,Wunderground v.1.15,2013-03-04 14:03:00,
2013-03-04 09:08:00,44.8,42.9,30.25,NE,45,0.0,2.0,93,0.00,,,0.39,Wunderground v.1.15,2013-03-04 14:08:00,
2013-03-04 09:13:00,45.6,42.8,30.24,NNW,330,1.0,2.0,90,0.00,,,0.39,Wunderground v.1.15,2013-03-04 14:13:00,
2013-03-04 09:19:00,46.6,43.2,30.24,ENE,60,1.0,2.0,88,0.00,,,0.39,Wunderground v.1.15,2013-03-04 14:19:00,
2013-03-04 09:26:00,48.0,43.4,30.25,NNE,16,1.0,1.0,84,0.00,,,0.39,Wunderground v.1.15,2013-03-04 14:26:00,
2013-03-04 09:31:00,48.7,43.5,30.24,NNE,25,1.0,1.0,82,0.00,,,0.39,Wunderground v.1.15,2013-03-04 14:31:00,
2013-03-04 09:36:00,49.5,43.6,30.24,NNE,27,1.0,4.0,80,0.00,,,0.39,Wunderground v.1.15,2013-03-04 14:36:00,
2013-03-04 09:41:00,50.1,44.2,30.25,NE,34,1.0,1.0,80,0.00,,,0.39,Wunderground v.1.15,2013-03-04 14:41:00,
2013-03-04 09:46:00,50.7,42.4,30.24,East,79,1.0,1.0,73,0.00,,,0.39,Wunderground v.1.15,2013-03-04 14:46:00,
2013-03-04 09:51:00,51.3,42.2,30.24,ENE,65,1.0,1.0,71,0.00,,,0.39,Wunderground v.1.15,2013-03-04 14:51:00,
2013-03-04 09:56:00,52.0,42.9,30.24,NW,325,1.0,3.0,71,0.00,,,0.39,Wunderground v.1.15,2013-03-04 14:56:00,
2013-03-04 10:01:00,52.4,42.9,30.24,North,357,1.0,1.0,70,0.00,,,0.39,Wunderground v.1.15,2013-03-04 15:01:00,
2013-03-04 10:07:00,53.3,43.8,30.24,ENE,58,1.0,1.0,70,0.00,,,0.39,Wunderground v.1.15,2013-03-04 15:07:00,
2013-03-04 10:12:00,53.7,43.0,30.23,NNW,339,1.0,1.0,67,0.00,,,0.39,Wunderground v.1.15,2013-03-04 15:12:00,
2013-03-04 10:17:00,54.0,42.9,30.23,NE,45,1.0,1.0,66,0.00,,,0.39,Wunderground v.1.15,2013-03-04 15:17:00,
2013-03-04 10:22:00,54.6,44.2,30.23,North,8,1.0,1.0,68,0.00,,,0.39,Wunderground v.1.15,2013-03-04 15:22:00,
2013-03-04 10:28:00,55.1,42.3,30.23,NNE,29,1.0,2.0,62,0.00,,,0.39,Wunderground v.1.15,2013-03-04 15:28:00,
2013-03-04 10:33:00,55.5,43.9,30.23,NW,309,1.0,2.0,65,0.00,,,0.39,Wunderground v.1.15,2013-03-04 15:33:00,
2013-03-04 10:38:00,55.9,44.3,30.23,NE,43,1.0,2.0,65,0.00,,,0.39,Wunderground v.1.15,2013-03-04 15:38:00,
2013-03-04 10:43:00,56.6,46.2,30.23,West,275,1.0,1.0,68,0.00,,,0.39,Wunderground v.1.15,2013-03-04 15:43:00,
2013-03-04 10:48:00,57.1,43.8,30.22,ENE,66,1.0,3.0,61,0.00,,,0.39,Wunderground v.1.15,2013-03-04 15:48:00,
2013-03-04 10:54:00,57.1,43.3,30.22,NNW,331,1.0,1.0,60,0.00,,,0.39,Wunderground v.1.15,2013-03-04 15:54:00,
2013-03-04 10:59:00,57.3,43.5,30.22,North,11,1.0,1.0,60,0.00,,,0.39,Wunderground v.1.15,2013-03-04 15:59:00,
2013-03-04 11:04:00,57.6,42.5,30.21,NW,306,1.0,3.0,57,0.00,,,0.39,Wunderground v.1.15,2013-03-04 16:04:00,
2013-03-04 11:09:00,58.1,44.3,30.21,NNE,25,1.0,3.0,60,0.00,,,0.39,Wunderground v.1.15,2013-03-04 16:09:00,
2013-03-04 11:14:00,58.5,44.2,30.21,NE,54,1.0,2.0,59,0.00,,,0.39,Wunderground v.1.15,2013-03-04 16:14:00,
2013-03-04 11:19:00,59.1,44.3,30.21,NNW,347,1.0,2.0,58,0.00,,,0.39,Wunderground v.1.15,2013-03-04 16:19:00,
2013-03-04 11:26:00,59.7,44.9,30.21,NE,43,1.0,2.0,58,0.00,,,0.39,Wunderground v.1.15,2013-03-04 16:26:00,
2013-03-04 11:31:00,59.9,43.2,30.20,East,85,1.0,2.0,54,0.00,,,0.39,Wunderground v.1.15,2013-03-04 16:31:00,
2013-03-04 11:36:00,60.2,43.0,30.20,North,4,1.0,2.0,53,0.00,,,0.39,Wunderground v.1.15,2013-03-04 16:36:00,
2013-03-04 11:41:00,60.6,44.3,30.20,NNW,332,1.0,1.0,55,0.00,,,0.39,Wunderground v.1.15,2013-03-04 16:41:00,
2013-03-04 11:47:00,61.1,44.8,30.20,ENE,64,1.0,2.0,55,0.00,,,0.39,Wunderground v.1.15,2013-03-04 16:47:00,
2013-03-04 11:53:00,61.5,42.7,30.19,NNE,17,1.0,3.0,50,0.00,,,0.39,Wunderground v.1.15,2013-03-04 16:53:00,
2013-03-04 11:58:00,62.0,42.6,30.19,North,355,1.0,4.0,49,0.00,,,0.39,Wunderground v.1.15,2013-03-04 16:58:00,
2013-03-04 12:03:00,61.8,44.0,30.19,North,10,2.0,3.0,52,0.00,,,0.39,Wunderground v.1.15,2013-03-04 17:03:00,
2013-03-04 12:08:00,62.2,43.8,30.18,North,10,1.0,3.0,51,0.00,,,0.39,Wunderground v.1.15,2013-03-04 17:08:00,
2013-03-04 12:14:00,62.5,44.6,30.18,NNE,21,1.0,1.0,52,0.00,,,0.39,Wunderground v.1.15,2013-03-04 17:14:00,
2013-03-04 12:19:00,63.0,44.1,30.18,NNE,21,1.0,1.0,50,0.00,,,0.39,Wunderground v.1.15,2013-03-04 17:19:00,
2013-03-04 12:24:00,63.5,45.0,30.17,NNE,21,1.0,1.0,51,0.00,,,0.39,Wunderground v.1.15,2013-03-04 17:24:00,
2013-03-04 12:29:00,63.8,44.8,30.17,NNE,21,1.0,1.0,50,0.00,,,0.39,Wunderground v.1.15,2013-03-04 17:29:00,
2013-03-04 12:34:00,63.8,42.0,30.17,ENE,70,1.0,1.0,45,0.00,,,0.39,Wunderground v.1.15,2013-03-04 17:34:00,
2013-03-04 12:39:00,63.7,44.2,30.16,NNW,335,1.0,2.0,49,0.00,,,0.39,Wunderground v.1.15,2013-03-04 17:39:00,
2013-03-04 12:44:00,63.8,44.3,30.16,NNW,339,1.0,1.0,49,0.00,,,0.39,Wunderground v.1.15,2013-03-04 17:44:00,
2013-03-04 12:49:00,63.7,40.8,30.16,ENE,60,1.0,1.0,43,0.00,,,0.39,Wunderground v.1.15,2013-03-04 17:49:00,
2013-03-04 12:54:00,63.6,40.7,30.16,North,360,1.0,3.0,43,0.00,,,0.39,Wunderground v.1.15,2013-03-04 17:54:00,
2013-03-04 13:01:00,63.4,42.2,30.16,West,266,1.0,1.0,46,0.00,,,0.39,Wunderground v.1.15,2013-03-04 18:01:00,
2013-03-04 13:07:00,63.5,44.5,30.16,NW,315,1.0,1.0,50,0.00,,,0.39,Wunderground v.1.15,2013-03-04 18:07:00,
2013-03-04 13:12:00,63.7,41.4,30.16,South,180,1.0,1.0,44,0.00,,,0.39,Wunderground v.1.15,2013-03-04 18:12:00,
2013-03-04 13:17:00,63.9,42.1,30.15,SSE,161,1.0,2.0,45,0.00,,,0.39,Wunderground v.1.15,2013-03-04 18:17:00,
2013-03-04 13:22:00,64.3,39.4,30.15,NW,309,1.0,3.0,40,0.00,,,0.39,Wunderground v.1.15,2013-03-04 18:22:00,
2013-03-04 13:27:00,64.6,42.2,30.15,North,359,1.0,3.0,44,0.00,,,0.39,Wunderground v.1.15,2013-03-04 18:27:00,
2013-03-04 13:31:00,64.6,41.6,30.14,North,2,1.0,1.0,43,0.00,,,0.39,Wunderground v.1.15,2013-03-04 18:31:00,
2013-03-04 13:34:00,64.8,42.9,30.14,North,351,1.0,3.0,45,0.00,,,0.39,Wunderground v.1.15,2013-03-04 18:34:00,
2013-03-04 13:37:00,65.1,40.2,30.14,North,355,1.0,3.0,40,0.00,,,0.39,Wunderground v.1.15,2013-03-04 18:37:00,
2013-03-04 13:38:00,65.2,40.3,30.14,NW,316,1.0,3.0,40,0.00,,,0.39,Wunderground v.1.15,2013-03-04 18:38:00,
2013-03-04 13:43:00,65.5,39.9,30.14,SW,228,1.0,1.0,39,0.00,,,0.39,Wunderground v.1.15,2013-03-04 18:43:00,
2013-03-04 13:48:00,65.8,40.8,30.13,NNE,12,2.0,2.0,40,0.00,,,0.39,Wunderground v.1.15,2013-03-04 18:48:00,
2013-03-04 13:54:00,66.5,41.4,30.13,North,350,2.0,2.0,40,0.00,,,0.39,Wunderground v.1.15,2013-03-04 18:54:00,
2013-03-04 13:59:00,66.9,40.5,30.13,NNW,328,1.0,3.0,38,0.00,,,0.39,Wunderground v.1.15,2013-03-04 18:59:00,
2013-03-04 14:06:00,67.6,42.4,30.13,NNE,33,0.0,1.0,40,0.00,,,0.39,Wunderground v.1.15,2013-03-04 19:06:00,
2013-03-04 14:11:00,67.7,43.1,30.13,NNE,33,0.0,0.0,41,0.00,,,0.39,Wunderground v.1.15,2013-03-04 19:11:00,
2013-03-04 14:17:00,68.0,42.8,30.13,NNW,329,1.0,1.0,40,0.00,,,0.39,Wunderground v.1.15,2013-03-04 19:17:00,
2013-03-04 14:22:00,68.1,41.5,30.13,North,349,1.0,3.0,38,0.00,,,0.39,Wunderground v.1.15,2013-03-04 19:22:00,
2013-03-04 14:28:00,68.5,41.2,30.12,NNE,29,1.0,3.0,37,0.00,,,0.39,Wunderground v.1.15,2013-03-04 19:28:00,
2013-03-04 14:33:00,68.7,43.4,30.12,NW,319,1.0,2.0,40,0.00,,,0.39,Wunderground v.1.15,2013-03-04 19:33:00,
2013-03-04 14:38:00,69.6,42.2,30.12,NNW,331,1.0,2.0,37,0.00,,,0.39,Wunderground v.1.15,2013-03-04 19:38:00,
2013-03-04 14:44:00,69.7,40.1,30.12,West,268,1.0,2.0,34,0.00,,,0.39,Wunderground v.1.15,2013-03-04 19:44:00,
2013-03-04 14:49:00,69.8,40.9,30.12,WNW,299,1.0,3.0,35,0.00,,,0.39,Wunderground v.1.15,2013-03-04 19:49:00,
2013-03-04 14:56:00,70.2,39.7,30.12,West,266,2.0,2.0,33,0.00,,,0.39,Wunderground v.1.15,2013-03-04 19:56:00,
2013-03-04 15:01:00,70.5,40.0,30.12,WNW,291,1.0,2.0,33,0.00,,,0.39,Wunderground v.1.15,2013-03-04 20:01:00,
2013-03-04 15:06:00,70.8,43.2,30.11,WNW,291,1.0,2.0,37,0.00,,,0.39,Wunderground v.1.15,2013-03-04 20:06:00,
2013-03-04 15:11:00,71.6,41.7,30.11,NNW,339,1.0,1.0,34,0.00,,,0.39,Wunderground v.1.15,2013-03-04 20:11:00,
2013-03-04 15:16:00,71.7,39.4,30.11,NE,47,1.0,2.0,31,0.00,,,0.39,Wunderground v.1.15,2013-03-04 20:16:00,
2013-03-04 15:21:00,71.6,42.5,30.11,NE,47,1.0,1.0,35,0.00,,,0.39,Wunderground v.1.15,2013-03-04 20:21:00,
2013-03-04 15:26:00,72.2,42.3,30.11,NE,43,0.0,1.0,34,0.00,,,0.39,Wunderground v.1.15,2013-03-04 20:26:00,
2013-03-04 15:31:00,72.2,39.9,30.11,West,264,0.0,0.0,31,0.00,,,0.39,Wunderground v.1.15,2013-03-04 20:31:00,
2013-03-04 15:36:00,72.4,41.7,30.11,NW,324,1.0,2.0,33,0.00,,,0.39,Wunderground v.1.15,2013-03-04 20:36:00,
2013-03-04 15:41:00,72.5,39.3,30.11,NNW,345,1.0,1.0,30,0.00,,,0.39,Wunderground v.1.15,2013-03-04 20:41:00,
2013-03-04 15:46:00,72.5,40.1,30.11,NW,308,1.0,2.0,31,0.00,,,0.39,Wunderground v.1.15,2013-03-04 20:46:00,
2013-03-04 15:51:00,72.7,40.3,30.11,North,360,0.0,0.0,31,0.00,,,0.39,Wunderground v.1.15,2013-03-04 20:51:00,
2013-03-04 15:56:00,72.9,41.3,30.11,North,10,1.0,2.0,32,0.00,,,0.39,Wunderground v.1.15,2013-03-04 20:56:00,
2013-03-04 16:01:00,73.1,40.7,30.11,NNW,333,1.0,1.0,31,0.00,,,0.39,Wunderground v.1.15,2013-03-04 21:01:00,
2013-03-04 16:07:00,73.0,41.4,30.11,NNW,348,1.0,2.0,32,0.00,,,0.39,Wunderground v.1.15,2013-03-04 21:07:00,
2013-03-04 16:12:00,72.9,40.5,30.11,WNW,291,1.0,4.0,31,0.00,,,0.39,Wunderground v.1.15,2013-03-04 21:12:00,
2013-03-04 16:17:00,72.1,38.9,30.11,WNW,291,1.0,4.0,30,0.00,,,0.39,Wunderground v.1.15,2013-03-04 21:17:00,
2013-03-04 16:22:00,71.9,38.8,30.11,NNW,333,1.0,1.0,30,0.00,,,0.39,Wunderground v.1.15,2013-03-04 21:22:00,
2013-03-04 16:27:00,72.1,45.1,30.11,NNW,333,0.0,1.0,38,0.00,,,0.39,Wunderground v.1.15,2013-03-04 21:27:00,
2013-03-04 16:33:00,72.4,43.2,30.11,SW,215,0.0,3.0,35,0.00,,,0.39,Wunderground v.1.15,2013-03-04 21:33:00,
2013-03-04 16:38:00,72.6,44.8,30.11,SW,216,1.0,3.0,37,0.00,,,0.39,Wunderground v.1.15,2013-03-04 21:38:00,
2013-03-04 16:43:00,73.0,43.0,30.11,North,349,1.0,2.0,34,0.00,,,0.39,Wunderground v.1.15,2013-03-04 21:43:00,
2013-03-04 16:48:00,73.3,42.4,30.11,North,349,0.0,2.0,33,0.00,,,0.39,Wunderground v.1.15,2013-03-04 21:48:00,
2013-03-04 16:53:00,73.0,42.2,30.11,NNW,337,1.0,3.0,33,0.00,,,0.39,Wunderground v.1.15,2013-03-04 21:53:00,
2013-03-04 16:58:00,72.7,41.1,30.10,NW,326,1.0,3.0,32,0.00,,,0.39,Wunderground v.1.15,2013-03-04 21:58:00,
2013-03-04 17:04:00,72.1,40.6,30.11,NW,318,1.0,2.0,32,0.00,,,0.39,Wunderground v.1.15,2013-03-04 22:04:00,
2013-03-04 17:09:00,71.3,41.5,30.11,SE,124,1.0,2.0,34,0.00,,,0.39,Wunderground v.1.15,2013-03-04 22:09:00,
2013-03-04 17:16:00,71.6,42.5,30.11,SE,124,0.0,1.0,35,0.00,,,0.39,Wunderground v.1.15,2013-03-04 22:16:00,
2013-03-04 17:21:00,72.2,44.5,30.11,SE,124,0.0,0.0,37,0.00,,,0.39,Wunderground v.1.15,2013-03-04 22:21:00,
2013-03-04 17:26:00,72.5,44.7,30.11,SE,124,0.0,0.0,37,0.00,,,0.39,Wunderground v.1.15,2013-03-04 22:26:00,
2013-03-04 17:31:00,72.4,45.4,30.11,SE,124,0.0,0.0,38,0.00,,,0.39,Wunderground v.1.15,2013-03-04 22:31:00,
2013-03-04 17:36:00,71.3,44.4,30.12,NW,326,1.0,2.0,38,0.00,,,0.39,Wunderground v.1.15,2013-03-04 22:36:00,
2013-03-04 17:41:00,69.8,45.7,30.12,NW,311,1.0,1.0,42,0.00,,,0.39,Wunderground v.1.15,2013-03-04 22:41:00,
2013-03-04 17:46:00,68.4,46.2,30.12,NNW,344,2.0,2.0,45,0.00,,,0.39,Wunderground v.1.15,2013-03-04 22:46:00,
2013-03-04 17:51:00,67.4,47.0,30.12,North,349,2.0,2.0,48,0.00,,,0.39,Wunderground v.1.15,2013-03-04 22:51:00,
2013-03-04 17:56:00,64.9,46.3,30.12,West,266,2.0,3.0,51,0.00,,,0.39,Wunderground v.1.15,2013-03-04 22:56:00,
2013-03-04 18:01:00,64.0,48.0,30.12,NNW,338,2.0,2.0,56,0.00,,,0.39,Wunderground v.1.15,2013-03-04 23:01:00,
2013-03-04 18:07:00,62.5,46.6,30.12,NW,319,1.0,2.0,56,0.00,,,0.39,Wunderground v.1.15,2013-03-04 23:07:00,
2013-03-04 18:13:00,61.3,46.8,30.12,NW,318,1.0,1.0,59,0.00,,,0.39,Wunderground v.1.15,2013-03-04 23:13:00,
2013-03-04 18:19:00,60.6,47.9,30.13,NW,310,1.0,2.0,63,0.00,,,0.39,Wunderground v.1.15,2013-03-04 23:19:00,
2013-03-04 18:24:00,59.9,47.3,30.13,NW,310,0.0,1.0,63,0.00,,,0.39,Wunderground v.1.15,2013-03-04 23:24:00,
2013-03-04 18:29:00,59.1,46.9,30.13,North,355,0.0,2.0,64,0.00,,,0.39,Wunderground v.1.15,2013-03-04 23:29:00,
2013-03-04 18:34:00,58.7,47.4,30.13,North,355,0.0,0.0,66,0.00,,,0.39,Wunderground v.1.15,2013-03-04 23:34:00,
2013-03-04 18:39:00,58.0,47.1,30.13,North,355,0.0,0.0,67,0.00,,,0.39,Wunderground v.1.15,2013-03-04 23:39:00,
2013-03-04 18:44:00,57.6,47.5,30.13,North,355,0.0,0.0,69,0.00,,,0.39,Wunderground v.1.15,2013-03-04 23:44:00,
2013-03-04 18:49:00,56.9,47.6,30.13,North,355,0.0,0.0,71,0.00,,,0.39,Wunderground v.1.15,2013-03-04 23:49:00,
2013-03-04 18:56:00,56.0,47.5,30.14,North,355,0.0,0.0,73,0.00,,,0.39,Wunderground v.1.15,2013-03-04 23:56:00,
2013-03-04 19:01:00,55.3,47.2,30.14,North,355,0.0,0.0,74,0.00,,,0.39,Wunderground v.1.15,2013-03-05 00:01:00,
2013-03-04 19:06:00,54.5,47.1,30.14,North,355,0.0,0.0,76,0.00,,,0.39,Wunderground v.1.15,2013-03-05 00:06:00,
2013-03-04 19:11:00,53.9,46.2,30.14,North,355,0.0,0.0,75,0.00,,,0.39,Wunderground v.1.15,2013-03-05 00:11:00,
2013-03-04 19:16:00,52.9,46.2,30.15,North,355,0.0,0.0,78,0.00,,,0.39,Wunderground v.1.15,2013-03-05 00:16:00,
2013-03-04 19:21:00,52.4,46.1,30.14,North,355,0.0,0.0,79,0.00,,,0.39,Wunderground v.1.15,2013-03-05 00:21:00,
2013-03-04 19:26:00,52.1,46.4,30.15,North,355,0.0,0.0,81,0.00,,,0.39,Wunderground v.1.15,2013-03-05 00:26:00,
2013-03-04 19:32:00,51.3,45.7,30.15,North,355,0.0,0.0,81,0.00,,,0.39,Wunderground v.1.15,2013-03-05 00:32:00,
2013-03-04 19:37:00,50.9,45.9,30.15,North,355,0.0,0.0,83,0.00,,,0.39,Wunderground v.1.15,2013-03-05 00:37:00,
2013-03-04 19:43:00,50.4,45.7,30.16,North,355,0.0,0.0,84,0.00,,,0.39,Wunderground v.1.15,2013-03-05 00:43:00,
2013-03-04 19:48:00,50.0,45.4,30.16,North,355,0.0,0.0,84,0.00,,,0.39,Wunderground v.1.15,2013-03-05 00:48:00,
2013-03-04 19:53:00,49.7,45.7,30.16,North,355,0.0,0.0,86,0.00,,,0.39,Wunderground v.1.15,2013-03-05 00:53:00,
2013-03-04 19:58:00,49.5,45.8,30.16,North,355,0.0,0.0,87,0.00,,,0.39,Wunderground v.1.15,2013-03-05 00:58:00,
2013-03-04 20:03:00,49.2,45.8,30.17,North,355,0.0,0.0,88,0.00,,,0.39,Wunderground v.1.15,2013-03-05 01:03:00,
2013-03-04 20:08:00,49.0,45.6,30.17,North,355,0.0,0.0,88,0.00,,,0.39,Wunderground v.1.15,2013-03-05 01:08:00,
2013-03-04 20:13:00,48.6,45.5,30.17,North,355,0.0,0.0,89,0.00,,,0.39,Wunderground v.1.15,2013-03-05 01:13:00,
2013-03-04 20:18:00,48.3,45.5,30.17,North,355,0.0,0.0,90,0.00,,,0.39,Wunderground v.1.15,2013-03-05 01:18:00,
2013-03-04 20:24:00,48.0,45.2,30.17,North,355,0.0,0.0,90,0.00,,,0.39,Wunderground v.1.15,2013-03-05 01:24:00,
2013-03-04 20:29:00,47.8,45.0,30.17,North,355,0.0,0.0,90,0.00,,,0.39,Wunderground v.1.15,2013-03-05 01:29:00,
2013-03-04 20:34:00,47.5,44.7,30.18,North,355,0.0,0.0,90,0.00,,,0.39,Wunderground v.1.15,2013-03-05 01:34:00,
2013-03-04 20:39:00,47.3,44.8,30.18,North,355,0.0,0.0,91,0.00,,,0.39,Wunderground v.1.15,2013-03-05 01:39:00,
2013-03-04 20:44:00,47.0,44.5,30.18,North,355,0.0,0.0,91,0.00,,,0.39,Wunderground v.1.15,2013-03-05 01:44:00,
2013-03-04 20:49:00,46.8,44.6,30.18,North,355,0.0,0.0,92,0.00,,,0.39,Wunderground v.1.15,2013-03-05 01:49:00,
2013-03-04 20:56:00,46.5,44.3,30.18,North,355,0.0,0.0,92,0.00,,,0.39,Wunderground v.1.15,2013-03-05 01:56:00,
2013-03-04 21:02:00,46.3,44.1,30.18,North,355,0.0,0.0,92,0.00,,,0.39,Wunderground v.1.15,2013-03-05 02:02:00,
2013-03-04 21:07:00,46.1,44.2,30.18,North,355,0.0,0.0,93,0.00,,,0.39,Wunderground v.1.15,2013-03-05 02:07:00,
2013-03-04 21:12:00,46.0,44.1,30.18,North,355,0.0,0.0,93,0.00,,,0.39,Wunderground v.1.15,2013-03-05 02:12:00,
2013-03-04 21:17:00,45.8,43.9,30.18,North,355,0.0,0.0,93,0.00,,,0.39,Wunderground v.1.15,2013-03-05 02:17:00,
2013-03-04 21:22:00,45.6,43.7,30.18,North,355,0.0,0.0,93,0.00,,,0.39,Wunderground v.1.15,2013-03-05 02:22:00,
2013-03-04 21:27:00,45.4,43.5,30.18,North,355,0.0,0.0,93,0.00,,,0.39,Wunderground v.1.15,2013-03-05 02:27:00,
2013-03-04 21:32:00,45.2,43.6,30.18,North,355,0.0,0.0,94,0.00,,,0.39,Wunderground v.1.15,2013-03-05 02:32:00,
2013-03-04 21:37:00,45.0,43.4,30.18,North,355,0.0,0.0,94,0.00,,,0.39,Wunderground v.1.15,2013-03-05 02:37:00,
2013-03-04 21:43:00,44.8,43.2,30.18,North,355,0.0,0.0,94,0.00,,,0.39,Wunderground v.1.15,2013-03-05 02:43:00,
2013-03-04 21:48:00,44.7,43.1,30.18,North,355,0.0,0.0,94,0.00,,,0.39,Wunderground v.1.15,2013-03-05 02:48:00,
2013-03-04 21:53:00,44.5,42.9,30.18,North,355,0.0,0.0,94,0.00,,,0.39,Wunderground v.1.15,2013-03-05 02:53:00,
2013-03-04 21:58:00,44.4,42.8,30.18,North,355,0.0,0.0,94,0.00,,,0.39,Wunderground v.1.15,2013-03-05 02:58:00,
2013-03-04 22:04:00,44.2,42.6,30.18,North,355,0.0,0.0,94,0.00,,,0.39,Wunderground v.1.15,2013-03-05 03:04:00,
2013-03-04 22:09:00,44.1,42.5,30.18,North,355,0.0,0.0,94,0.00,,,0.39,Wunderground v.1.15,2013-03-05 03:09:00,
2013-03-04 22:14:00,44.0,42.7,30.18,North,355,0.0,0.0,95,0.00,,,0.39,Wunderground v.1.15,2013-03-05 03:14:00,
2013-03-04 22:19:00,43.8,42.5,30.18,North,355,0.0,0.0,95,0.00,,,0.39,Wunderground v.1.15,2013-03-05 03:19:00,
2013-03-04 22:24:00,43.7,42.4,30.18,North,355,0.0,0.0,95,0.00,,,0.39,Wunderground v.1.15,2013-03-05 03:24:00,
2013-03-04 22:29:00,43.5,42.2,30.18,North,355,0.0,0.0,95,0.00,,,0.39,Wunderground v.1.15,2013-03-05 03:29:00,
2013-03-04 22:36:00,43.3,42.0,30.18,North,355,0.0,0.0,95,0.00,,,0.39,Wunderground v.1.15,2013-03-05 03:36:00,
2013-03-04 22:42:00,43.2,41.9,30.18,North,355,0.0,0.0,95,0.00,,,0.39,Wunderground v.1.15,2013-03-05 03:42:00,
2013-03-04 22:47:00,43.1,41.8,30.18,North,355,0.0,0.0,95,0.00,,,0.39,Wunderground v.1.15,2013-03-05 03:47:00,
2013-03-04 22:53:00,43.0,41.7,30.18,North,355,0.0,0.0,95,0.00,,,0.39,Wunderground v.1.15,2013-03-05 03:53:00,
2013-03-04 22:58:00,42.9,41.6,30.18,North,355,0.0,0.0,95,0.00,,,0.39,Wunderground v.1.15,2013-03-05 03:58:00,
2013-03-04 23:03:00,42.9,41.6,30.18,North,355,0.0,0.0,95,0.00,,,0.39,Wunderground v.1.15,2013-03-05 04:03:00,
2013-03-04 23:08:00,42.8,41.5,30.18,North,355,0.0,0.0,95,0.00,,,0.39,Wunderground v.1.15,2013-03-05 04:08:00,
2013-03-04 23:14:00,42.8,41.5,30.18,North,355,0.0,0.0,95,0.00,,,0.39,Wunderground v.1.15,2013-03-05 04:14:00,
2013-03-04 23:19:00,42.6,41.5,30.18,North,355,0.0,0.0,96,0.00,,,0.39,Wunderground v.1.15,2013-03-05 04:19:00,
2013-03-04 23:24:00,42.5,41.4,30.18,North,355,0.0,0.0,96,0.00,,,0.39,Wunderground v.1.15,2013-03-05 04:24:00,
2013-03-04 23:29:00,42.4,41.3,30.18,North,355,0.0,0.0,96,0.00,,,0.39,Wunderground v.1.15,2013-03-05 04:29:00,
2013-03-04 23:34:00,42.3,41.2,30.18,North,355,0.0,0.0,96,0.00,,,0.39,Wunderground v.1.15,2013-03-05 04:34:00,
2013-03-04 23:39:00,42.3,41.2,30.19,North,355,0.0,0.0,96,0.00,,,0.39,Wunderground v.1.15,2013-03-05 04:39:00,
2013-03-04 23:44:00,42.1,41.0,30.19,North,355,0.0,0.0,96,0.00,,,0.39,Wunderground v.1.15,2013-03-05 04:44:00,
2013-03-04 23:49:00,42.1,41.0,30.19,North,355,0.0,0.0,96,0.00,,,0.39,Wunderground v.1.15,2013-03-05 04:49:00,
2013-03-04 23:56:00,42.1,41.0,30.19,North,355,0.0,0.0,96,0.00,,,0.39,Wunderground v.1.15,2013-03-05 04:56:00,